sensor_id;sensor_type;location;lat;lon;timestamp;temperature;humidity
78733;DHT22;68056;52.530;5.454;2023-05-19T00:02:15;9.50;63.30
78733;DHT22;68056;52.530;5.454;2023-05-19T00:04:42;9.50;63.40
78733;DHT22;68056;52.530;5.454;2023-05-19T00:07:09;9.50;63.40
78733;DHT22;68056;52.530;5.454;2023-05-19T00:09:37;9.40;63.40
78733;DHT22;68056;52.530;5.454;2023-05-19T00:12:02;9.40;63.50
78733;DHT22;68056;52.530;5.454;2023-05-19T00:14:28;9.40;63.50
78733;DHT22;68056;52.530;5.454;2023-05-19T00:16:54;9.40;63.60
78733;DHT22;68056;52.530;5.454;2023-05-19T00:19:23;9.40;63.60
78733;DHT22;68056;52.530;5.454;2023-05-19T00:21:49;9.30;63.60
78733;DHT22;68056;52.530;5.454;2023-05-19T00:24:15;9.30;63.70
78733;DHT22;68056;52.530;5.454;2023-05-19T00:26:40;9.30;63.70
78733;DHT22;68056;52.530;5.454;2023-05-19T00:29:06;9.20;63.70
78733;DHT22;68056;52.530;5.454;2023-05-19T00:31:31;9.20;63.80
78733;DHT22;68056;52.530;5.454;2023-05-19T00:33:58;9.20;63.90
78733;DHT22;68056;52.530;5.454;2023-05-19T00:36:24;9.20;63.90
78733;DHT22;68056;52.530;5.454;2023-05-19T00:38:50;9.20;64.00
78733;DHT22;68056;52.530;5.454;2023-05-19T00:41:16;9.20;64.10
78733;DHT22;68056;52.530;5.454;2023-05-19T00:43:41;9.10;64.20
78733;DHT22;68056;52.530;5.454;2023-05-19T00:46:07;9.10;64.20
78733;DHT22;68056;52.530;5.454;2023-05-19T00:48:33;9.10;64.20
78733;DHT22;68056;52.530;5.454;2023-05-19T00:50:59;9.10;64.10
78733;DHT22;68056;52.530;5.454;2023-05-19T00:53:29;9.10;64.10
78733;DHT22;68056;52.530;5.454;2023-05-19T00:55:56;9.10;64.00
78733;DHT22;68056;52.530;5.454;2023-05-19T00:58:22;9.00;64.00
78733;DHT22;68056;52.530;5.454;2023-05-19T01:00:49;9.00;64.10
78733;DHT22;68056;52.530;5.454;2023-05-19T01:03:15;9.00;64.10
78733;DHT22;68056;52.530;5.454;2023-05-19T01:05:44;9.00;64.10
78733;DHT22;68056;52.530;5.454;2023-05-19T01:08:10;9.00;64.10
78733;DHT22;68056;52.530;5.454;2023-05-19T01:10:36;9.00;64.10
78733;DHT22;68056;52.530;5.454;2023-05-19T01:13:02;8.90;64.20
78733;DHT22;68056;52.530;5.454;2023-05-19T01:15:32;8.90;64.20
78733;DHT22;68056;52.530;5.454;2023-05-19T01:18:13;8.90;64.20
78733;DHT22;68056;52.530;5.454;2023-05-19T01:20:46;8.80;64.30
78733;DHT22;68056;52.530;5.454;2023-05-19T01:31:41;8.60;64.50
78733;DHT22;68056;52.530;5.454;2023-05-19T01:34:08;8.60;64.50
78733;DHT22;68056;52.530;5.454;2023-05-19T01:36:36;8.60;64.50
78733;DHT22;68056;52.530;5.454;2023-05-19T01:39:02;8.60;64.50
78733;DHT22;68056;52.530;5.454;2023-05-19T01:41:29;8.50;64.50
78733;DHT22;68056;52.530;5.454;2023-05-19T01:43:57;8.50;64.50
78733;DHT22;68056;52.530;5.454;2023-05-19T01:46:22;8.50;64.60
78733;DHT22;68056;52.530;5.454;2023-05-19T01:48:49;8.50;64.60
78733;DHT22;68056;52.530;5.454;2023-05-19T01:51:14;8.50;64.60
78733;DHT22;68056;52.530;5.454;2023-05-19T01:53:40;8.50;64.60
78733;DHT22;68056;52.530;5.454;2023-05-19T01:56:06;8.40;64.60
78733;DHT22;68056;52.530;5.454;2023-05-19T01:58:44;8.40;64.60
78733;DHT22;68056;52.530;5.454;2023-05-19T02:01:33;8.40;64.60
78733;DHT22;68056;52.530;5.454;2023-05-19T02:04:16;8.40;64.60
78733;DHT22;68056;52.530;5.454;2023-05-19T02:09:51;8.30;64.70
78733;DHT22;68056;52.530;5.454;2023-05-19T02:12:27;8.30;64.60
78733;DHT22;68056;52.530;5.454;2023-05-19T02:15:01;8.30;64.70
78733;DHT22;68056;52.530;5.454;2023-05-19T02:17:29;8.20;64.60
78733;DHT22;68056;52.530;5.454;2023-05-19T02:19:57;8.20;64.50
78733;DHT22;68056;52.530;5.454;2023-05-19T02:22:23;8.20;64.60
78733;DHT22;68056;52.530;5.454;2023-05-19T02:24:48;8.20;64.60
78733;DHT22;68056;52.530;5.454;2023-05-19T02:27:16;8.10;64.70
78733;DHT22;68056;52.530;5.454;2023-05-19T02:29:41;8.10;64.70
78733;DHT22;68056;52.530;5.454;2023-05-19T02:32:07;8.00;64.80
78733;DHT22;68056;52.530;5.454;2023-05-19T02:34:33;8.00;64.80
78733;DHT22;68056;52.530;5.454;2023-05-19T02:36:58;8.00;64.90
78733;DHT22;68056;52.530;5.454;2023-05-19T02:39:24;8.00;64.90
78733;DHT22;68056;52.530;5.454;2023-05-19T02:41:50;8.00;64.90
78733;DHT22;68056;52.530;5.454;2023-05-19T02:44:16;8.00;65.00
78733;DHT22;68056;52.530;5.454;2023-05-19T02:46:41;7.90;65.00
78733;DHT22;68056;52.530;5.454;2023-05-19T02:49:08;7.90;65.00
78733;DHT22;68056;52.530;5.454;2023-05-19T02:51:34;7.80;65.10
78733;DHT22;68056;52.530;5.454;2023-05-19T02:53:59;7.80;65.20
78733;DHT22;68056;52.530;5.454;2023-05-19T02:56:25;7.80;65.20
78733;DHT22;68056;52.530;5.454;2023-05-19T02:59:03;7.80;65.20
78733;DHT22;68056;52.530;5.454;2023-05-19T03:01:37;7.80;65.20
78733;DHT22;68056;52.530;5.454;2023-05-19T03:04:07;7.80;65.30
78733;DHT22;68056;52.530;5.454;2023-05-19T03:06:35;7.80;65.30
78733;DHT22;68056;52.530;5.454;2023-05-19T03:09:02;7.70;65.40
78733;DHT22;68056;52.530;5.454;2023-05-19T03:11:28;7.70;65.40
78733;DHT22;68056;52.530;5.454;2023-05-19T03:13:55;7.60;65.50
78733;DHT22;68056;52.530;5.454;2023-05-19T03:16:20;7.60;65.40
78733;DHT22;68056;52.530;5.454;2023-05-19T03:18:46;7.60;65.60
78733;DHT22;68056;52.530;5.454;2023-05-19T03:21:12;7.60;65.50
78733;DHT22;68056;52.530;5.454;2023-05-19T03:23:37;7.60;65.60
78733;DHT22;68056;52.530;5.454;2023-05-19T03:26:03;7.60;65.60
78733;DHT22;68056;52.530;5.454;2023-05-19T03:28:29;7.60;65.50
78733;DHT22;68056;52.530;5.454;2023-05-19T03:30:55;7.60;65.50
78733;DHT22;68056;52.530;5.454;2023-05-19T03:33:21;7.60;65.50
78733;DHT22;68056;52.530;5.454;2023-05-19T03:35:48;7.60;65.50
78733;DHT22;68056;52.530;5.454;2023-05-19T03:38:13;7.60;65.50
78733;DHT22;68056;52.530;5.454;2023-05-19T03:40:39;7.60;65.50
78733;DHT22;68056;52.530;5.454;2023-05-19T03:43:05;7.60;65.50
78733;DHT22;68056;52.530;5.454;2023-05-19T03:45:32;7.60;65.50
78733;DHT22;68056;52.530;5.454;2023-05-19T03:48:00;7.60;65.50
78733;DHT22;68056;52.530;5.454;2023-05-19T03:50:26;7.60;65.50
78733;DHT22;68056;52.530;5.454;2023-05-19T03:52:53;7.60;65.50
78733;DHT22;68056;52.530;5.454;2023-05-19T03:55:19;7.50;65.50
78733;DHT22;68056;52.530;5.454;2023-05-19T03:57:45;7.50;65.60
78733;DHT22;68056;52.530;5.454;2023-05-19T04:00:11;7.50;65.60
78733;DHT22;68056;52.530;5.454;2023-05-19T04:02:37;7.50;65.70
78733;DHT22;68056;52.530;5.454;2023-05-19T04:05:03;7.50;65.70
78733;DHT22;68056;52.530;5.454;2023-05-19T04:07:32;7.50;65.70
78733;DHT22;68056;52.530;5.454;2023-05-19T04:09:57;7.50;65.70
78733;DHT22;68056;52.530;5.454;2023-05-19T04:12:23;7.50;65.80
78733;DHT22;68056;52.530;5.454;2023-05-19T04:14:48;7.50;65.80
78733;DHT22;68056;52.530;5.454;2023-05-19T04:17:14;7.50;65.80
78733;DHT22;68056;52.530;5.454;2023-05-19T04:19:40;7.50;65.80
78733;DHT22;68056;52.530;5.454;2023-05-19T04:22:05;7.50;65.80
78733;DHT22;68056;52.530;5.454;2023-05-19T04:24:31;7.50;65.90
78733;DHT22;68056;52.530;5.454;2023-05-19T04:26:59;7.50;65.90
78733;DHT22;68056;52.530;5.454;2023-05-19T04:29:29;7.50;65.90
78733;DHT22;68056;52.530;5.454;2023-05-19T04:31:54;7.50;65.90
78733;DHT22;68056;52.530;5.454;2023-05-19T04:34:21;7.50;65.90
78733;DHT22;68056;52.530;5.454;2023-05-19T04:36:47;7.50;66.00
78733;DHT22;68056;52.530;5.454;2023-05-19T04:39:13;7.50;66.00
78733;DHT22;68056;52.530;5.454;2023-05-19T04:41:40;7.50;66.10
78733;DHT22;68056;52.530;5.454;2023-05-19T04:44:06;7.50;66.20
78733;DHT22;68056;52.530;5.454;2023-05-19T04:46:33;7.50;66.30
78733;DHT22;68056;52.530;5.454;2023-05-19T04:48:59;7.60;66.30
78733;DHT22;68056;52.530;5.454;2023-05-19T04:51:26;7.60;66.40
78733;DHT22;68056;52.530;5.454;2023-05-19T04:53:55;7.60;66.60
78733;DHT22;68056;52.530;5.454;2023-05-19T04:56:21;7.60;66.60
78733;DHT22;68056;52.530;5.454;2023-05-19T04:58:47;7.70;66.70
78733;DHT22;68056;52.530;5.454;2023-05-19T05:01:13;7.80;66.70
78733;DHT22;68056;52.530;5.454;2023-05-19T05:03:43;7.80;66.90
78733;DHT22;68056;52.530;5.454;2023-05-19T05:06:08;7.80;67.00
78733;DHT22;68056;52.530;5.454;2023-05-19T05:08:34;7.90;67.10
78733;DHT22;68056;52.530;5.454;2023-05-19T05:11:01;8.00;67.10
78733;DHT22;68056;52.530;5.454;2023-05-19T05:13:28;8.00;67.10
78733;DHT22;68056;52.530;5.454;2023-05-19T05:15:54;8.10;67.10
78733;DHT22;68056;52.530;5.454;2023-05-19T05:18:20;8.10;67.10
78733;DHT22;68056;52.530;5.454;2023-05-19T05:20:46;8.30;67.10
78733;DHT22;68056;52.530;5.454;2023-05-19T05:23:12;8.40;67.20
78733;DHT22;68056;52.530;5.454;2023-05-19T05:25:42;8.50;67.20
78733;DHT22;68056;52.530;5.454;2023-05-19T05:28:08;8.60;67.30
78733;DHT22;68056;52.530;5.454;2023-05-19T05:30:34;8.60;67.30
78733;DHT22;68056;52.530;5.454;2023-05-19T05:33:00;8.70;67.20
78733;DHT22;68056;52.530;5.454;2023-05-19T05:35:26;8.80;67.20
78733;DHT22;68056;52.530;5.454;2023-05-19T05:37:52;8.90;67.20
78733;DHT22;68056;52.530;5.454;2023-05-19T05:40:18;9.00;67.10
78733;DHT22;68056;52.530;5.454;2023-05-19T05:42:43;9.20;67.10
78733;DHT22;68056;52.530;5.454;2023-05-19T05:45:09;9.30;67.00
78733;DHT22;68056;52.530;5.454;2023-05-19T05:47:35;9.50;66.90
78733;DHT22;68056;52.530;5.454;2023-05-19T05:50:03;9.70;66.80
78733;DHT22;68056;52.530;5.454;2023-05-19T05:52:29;10.00;66.50
78733;DHT22;68056;52.530;5.454;2023-05-19T05:54:56;10.20;66.40
78733;DHT22;68056;52.530;5.454;2023-05-19T05:57:22;10.40;66.10
78733;DHT22;68056;52.530;5.454;2023-05-19T05:59:48;10.50;66.00
78733;DHT22;68056;52.530;5.454;2023-05-19T06:02:15;10.70;65.70
78733;DHT22;68056;52.530;5.454;2023-05-19T06:04:41;10.80;65.60
78733;DHT22;68056;52.530;5.454;2023-05-19T06:07:08;10.90;65.50
78733;DHT22;68056;52.530;5.454;2023-05-19T06:09:33;11.10;65.40
78733;DHT22;68056;52.530;5.454;2023-05-19T06:11:59;11.20;65.30
78733;DHT22;68056;52.530;5.454;2023-05-19T06:14:25;11.40;65.20
78733;DHT22;68056;52.530;5.454;2023-05-19T06:16:53;11.50;65.00
78733;DHT22;68056;52.530;5.454;2023-05-19T06:19:19;11.70;64.80
78733;DHT22;68056;52.530;5.454;2023-05-19T06:21:45;11.90;64.70
78733;DHT22;68056;52.530;5.454;2023-05-19T06:24:11;12.10;64.40
78733;DHT22;68056;52.530;5.454;2023-05-19T06:26:36;12.30;64.20
78733;DHT22;68056;52.530;5.454;2023-05-19T06:29:02;12.30;64.10
78733;DHT22;68056;52.530;5.454;2023-05-19T06:31:28;12.50;64.00
78733;DHT22;68056;52.530;5.454;2023-05-19T06:33:54;12.50;63.80
78733;DHT22;68056;52.530;5.454;2023-05-19T06:36:19;12.70;63.80
78733;DHT22;68056;52.530;5.454;2023-05-19T06:38:45;12.90;63.60
78733;DHT22;68056;52.530;5.454;2023-05-19T06:41:14;13.10;63.50
78733;DHT22;68056;52.530;5.454;2023-05-19T06:43:42;13.30;63.20
78733;DHT22;68056;52.530;5.454;2023-05-19T06:46:08;13.50;62.90
78733;DHT22;68056;52.530;5.454;2023-05-19T06:48:35;13.60;62.60
78733;DHT22;68056;52.530;5.454;2023-05-19T06:51:07;13.90;62.60
78733;DHT22;68056;52.530;5.454;2023-05-19T06:53:34;14.20;62.40
78733;DHT22;68056;52.530;5.454;2023-05-19T06:56:00;14.40;62.00
78733;DHT22;68056;52.530;5.454;2023-05-19T06:58:26;14.60;61.80
78733;DHT22;68056;52.530;5.454;2023-05-19T07:00:52;14.70;61.70
78733;DHT22;68056;52.530;5.454;2023-05-19T07:03:17;14.90;61.60
78733;DHT22;68056;52.530;5.454;2023-05-19T07:05:43;15.10;61.30
78733;DHT22;68056;52.530;5.454;2023-05-19T07:08:10;15.30;61.00
78733;DHT22;68056;52.530;5.454;2023-05-19T07:10:38;15.60;60.80
78733;DHT22;68056;52.530;5.454;2023-05-19T07:13:04;15.80;60.60
78733;DHT22;68056;52.530;5.454;2023-05-19T07:15:29;15.90;60.10
78733;DHT22;68056;52.530;5.454;2023-05-19T07:17:55;16.00;60.00
78733;DHT22;68056;52.530;5.454;2023-05-19T07:20:22;16.30;59.80
78733;DHT22;68056;52.530;5.454;2023-05-19T07:22:47;16.40;59.60
78733;DHT22;68056;52.530;5.454;2023-05-19T07:25:13;16.60;59.30
78733;DHT22;68056;52.530;5.454;2023-05-19T07:27:39;16.70;59.30
78733;DHT22;68056;52.530;5.454;2023-05-19T07:30:05;16.90;59.20
78733;DHT22;68056;52.530;5.454;2023-05-19T07:32:31;17.00;58.90
78733;DHT22;68056;52.530;5.454;2023-05-19T07:34:59;17.20;58.60
78733;DHT22;68056;52.530;5.454;2023-05-19T07:37:25;17.20;58.40
78733;DHT22;68056;52.530;5.454;2023-05-19T07:39:50;17.40;58.00
78733;DHT22;68056;52.530;5.454;2023-05-19T07:42:16;17.50;57.80
78733;DHT22;68056;52.530;5.454;2023-05-19T07:44:42;17.70;57.70
78733;DHT22;68056;52.530;5.454;2023-05-19T07:47:07;17.80;57.50
78733;DHT22;68056;52.530;5.454;2023-05-19T07:49:33;18.00;57.10
78733;DHT22;68056;52.530;5.454;2023-05-19T07:51:58;18.00;56.80
78733;DHT22;68056;52.530;5.454;2023-05-19T07:54:24;18.00;56.90
78733;DHT22;68056;52.530;5.454;2023-05-19T07:56:50;18.20;56.90
78733;DHT22;68056;52.530;5.454;2023-05-19T07:59:16;18.20;56.40
78733;DHT22;68056;52.530;5.454;2023-05-19T08:01:41;18.30;56.40
78733;DHT22;68056;52.530;5.454;2023-05-19T08:04:25;18.40;56.40
78733;DHT22;68056;52.530;5.454;2023-05-19T08:06:55;18.50;56.50
78733;DHT22;68056;52.530;5.454;2023-05-19T08:09:33;18.80;56.30
78733;DHT22;68056;52.530;5.454;2023-05-19T08:12:05;19.20;56.20
78733;DHT22;68056;52.530;5.454;2023-05-19T08:14:30;19.50;55.60
78733;DHT22;68056;52.530;5.454;2023-05-19T08:17:03;19.70;55.20
78733;DHT22;68056;52.530;5.454;2023-05-19T08:19:29;19.70;54.60
78733;DHT22;68056;52.530;5.454;2023-05-19T08:21:54;19.50;54.40
78733;DHT22;68056;52.530;5.454;2023-05-19T08:24:22;19.50;54.10
78733;DHT22;68056;52.530;5.454;2023-05-19T08:26:47;19.40;54.00
78733;DHT22;68056;52.530;5.454;2023-05-19T08:29:13;19.10;53.70
78733;DHT22;68056;52.530;5.454;2023-05-19T08:31:38;19.00;54.10
78733;DHT22;68056;52.530;5.454;2023-05-19T08:34:04;19.00;54.50
78733;DHT22;68056;52.530;5.454;2023-05-19T08:36:29;19.30;54.10
78733;DHT22;68056;52.530;5.454;2023-05-19T08:38:55;19.50;53.70
78733;DHT22;68056;52.530;5.454;2023-05-19T08:41:21;19.60;53.30
78733;DHT22;68056;52.530;5.454;2023-05-19T08:43:47;19.70;53.00
78733;DHT22;68056;52.530;5.454;2023-05-19T08:46:15;20.00;52.60
78733;DHT22;68056;52.530;5.454;2023-05-19T08:48:44;20.10;51.80
78733;DHT22;68056;52.530;5.454;2023-05-19T08:51:23;20.20;51.90
78733;DHT22;68056;52.530;5.454;2023-05-19T08:53:55;20.30;52.00
78733;DHT22;68056;52.530;5.454;2023-05-19T08:56:24;20.50;51.70
78733;DHT22;68056;52.530;5.454;2023-05-19T08:58:51;20.50;51.60
78733;DHT22;68056;52.530;5.454;2023-05-19T09:01:18;20.70;51.60
78733;DHT22;68056;52.530;5.454;2023-05-19T09:03:45;20.90;51.40
78733;DHT22;68056;52.530;5.454;2023-05-19T09:06:11;21.00;51.40
78733;DHT22;68056;52.530;5.454;2023-05-19T09:08:38;21.00;51.20
78733;DHT22;68056;52.530;5.454;2023-05-19T09:11:04;21.10;50.80
78733;DHT22;68056;52.530;5.454;2023-05-19T09:13:29;21.10;50.30
78733;DHT22;68056;52.530;5.454;2023-05-19T09:15:56;21.20;50.20
78733;DHT22;68056;52.530;5.454;2023-05-19T09:18:23;21.10;50.10
78733;DHT22;68056;52.530;5.454;2023-05-19T09:20:48;21.30;49.50
78733;DHT22;68056;52.530;5.454;2023-05-19T09:23:16;21.40;49.70
78733;DHT22;68056;52.530;5.454;2023-05-19T09:25:49;21.50;49.60
78733;DHT22;68056;52.530;5.454;2023-05-19T09:28:28;21.70;49.40
78733;DHT22;68056;52.530;5.454;2023-05-19T09:30:59;22.00;49.10
78733;DHT22;68056;52.530;5.454;2023-05-19T09:33:25;22.30;49.30
78733;DHT22;68056;52.530;5.454;2023-05-19T09:35:53;22.50;48.80
78733;DHT22;68056;52.530;5.454;2023-05-19T09:38:20;22.60;48.60
78733;DHT22;68056;52.530;5.454;2023-05-19T09:40:47;22.80;48.40
78733;DHT22;68056;52.530;5.454;2023-05-19T09:43:15;23.00;47.90
78733;DHT22;68056;52.530;5.454;2023-05-19T09:45:41;23.00;46.70
78733;DHT22;68056;52.530;5.454;2023-05-19T09:48:06;22.90;46.90
78733;DHT22;68056;52.530;5.454;2023-05-19T09:50:32;23.10;47.50
78733;DHT22;68056;52.530;5.454;2023-05-19T09:52:58;23.40;47.30
78733;DHT22;68056;52.530;5.454;2023-05-19T09:55:25;23.50;47.20
78733;DHT22;68056;52.530;5.454;2023-05-19T09:57:54;23.80;47.00
78733;DHT22;68056;52.530;5.454;2023-05-19T10:00:26;23.90;46.50
78733;DHT22;68056;52.530;5.454;2023-05-19T10:02:52;24.00;46.40
78733;DHT22;68056;52.530;5.454;2023-05-19T10:05:19;24.10;46.40
78733;DHT22;68056;52.530;5.454;2023-05-19T10:07:47;24.20;46.30
78733;DHT22;68056;52.530;5.454;2023-05-19T10:10:14;24.20;45.90
78733;DHT22;68056;52.530;5.454;2023-05-19T10:12:40;24.30;45.90
78733;DHT22;68056;52.530;5.454;2023-05-19T10:15:19;24.40;45.40
78733;DHT22;68056;52.530;5.454;2023-05-19T10:17:45;24.40;44.70
78733;DHT22;68056;52.530;5.454;2023-05-19T10:20:12;24.40;44.00
78733;DHT22;68056;52.530;5.454;2023-05-19T10:22:39;24.40;44.50
78733;DHT22;68056;52.530;5.454;2023-05-19T10:25:06;24.50;45.00
78733;DHT22;68056;52.530;5.454;2023-05-19T10:27:39;24.70;44.50
78733;DHT22;68056;52.530;5.454;2023-05-19T10:30:20;25.00;44.80
78733;DHT22;68056;52.530;5.454;2023-05-19T10:32:47;24.90;44.30
78733;DHT22;68056;52.530;5.454;2023-05-19T10:40:56;24.20;44.40
78733;DHT22;68056;52.530;5.454;2023-05-19T10:46:11;23.60;43.90
78733;DHT22;68056;52.530;5.454;2023-05-19T10:48:36;23.60;44.10
78733;DHT22;68056;52.530;5.454;2023-05-19T10:51:02;23.70;44.50
78733;DHT22;68056;52.530;5.454;2023-05-19T10:53:30;23.90;44.60
78733;DHT22;68056;52.530;5.454;2023-05-19T10:55:56;23.90;43.50
78733;DHT22;68056;52.530;5.454;2023-05-19T10:58:48;23.70;44.00
78733;DHT22;68056;52.530;5.454;2023-05-19T11:01:18;23.60;44.00
78733;DHT22;68056;52.530;5.454;2023-05-19T11:03:50;23.50;44.80
78733;DHT22;68056;52.530;5.454;2023-05-19T11:06:35;23.60;44.70
78733;DHT22;68056;52.530;5.454;2023-05-19T11:09:01;23.70;44.60
78733;DHT22;68056;52.530;5.454;2023-05-19T11:11:54;23.80;44.10
78733;DHT22;68056;52.530;5.454;2023-05-19T11:14:22;23.90;44.20
78733;DHT22;68056;52.530;5.454;2023-05-19T11:16:50;23.90;44.10
78733;DHT22;68056;52.530;5.454;2023-05-19T11:19:33;23.80;44.00
78733;DHT22;68056;52.530;5.454;2023-05-19T11:22:09;23.80;44.70
78733;DHT22;68056;52.530;5.454;2023-05-19T11:24:42;23.80;44.60
78733;DHT22;68056;52.530;5.454;2023-05-19T11:29:54;24.00;44.40
78733;DHT22;68056;52.530;5.454;2023-05-19T11:32:21;24.10;44.30
78733;DHT22;68056;52.530;5.454;2023-05-19T11:34:50;24.20;44.20
78733;DHT22;68056;52.530;5.454;2023-05-19T11:37:15;24.30;44.40
78733;DHT22;68056;52.530;5.454;2023-05-19T11:39:41;24.40;44.30
78733;DHT22;68056;52.530;5.454;2023-05-19T11:42:08;24.40;44.40
78733;DHT22;68056;52.530;5.454;2023-05-19T11:44:35;24.50;44.60
78733;DHT22;68056;52.530;5.454;2023-05-19T11:47:03;24.60;44.90
78733;DHT22;68056;52.530;5.454;2023-05-19T11:49:28;24.80;44.90
78733;DHT22;68056;52.530;5.454;2023-05-19T11:51:54;24.90;44.80
78733;DHT22;68056;52.530;5.454;2023-05-19T11:54:20;24.80;44.80
78733;DHT22;68056;52.530;5.454;2023-05-19T11:56:46;24.90;44.70
78733;DHT22;68056;52.530;5.454;2023-05-19T11:59:11;24.80;44.40
78733;DHT22;68056;52.530;5.454;2023-05-19T12:01:37;24.80;44.40
78733;DHT22;68056;52.530;5.454;2023-05-19T12:04:08;24.80;44.50
78733;DHT22;68056;52.530;5.454;2023-05-19T12:06:34;24.80;44.50
78733;DHT22;68056;52.530;5.454;2023-05-19T12:09:01;24.80;44.50
78733;DHT22;68056;52.530;5.454;2023-05-19T12:11:30;24.70;44.20
78733;DHT22;68056;52.530;5.454;2023-05-19T12:14:00;24.70;44.20
78733;DHT22;68056;52.530;5.454;2023-05-19T12:16:33;24.60;44.40
78733;DHT22;68056;52.530;5.454;2023-05-19T12:18:59;24.50;44.50
78733;DHT22;68056;52.530;5.454;2023-05-19T12:21:25;24.40;44.70
78733;DHT22;68056;52.530;5.454;2023-05-19T12:23:50;24.00;44.90
78733;DHT22;68056;52.530;5.454;2023-05-19T12:26:16;23.60;45.20
78733;DHT22;68056;52.530;5.454;2023-05-19T12:28:44;23.50;45.60
78733;DHT22;68056;52.530;5.454;2023-05-19T12:31:11;23.40;45.60
78733;DHT22;68056;52.530;5.454;2023-05-19T12:33:37;23.20;45.50
78733;DHT22;68056;52.530;5.454;2023-05-19T12:36:03;23.10;45.60
78733;DHT22;68056;52.530;5.454;2023-05-19T12:38:29;23.00;45.70
78733;DHT22;68056;52.530;5.454;2023-05-19T12:40:57;23.10;45.90
78733;DHT22;68056;52.530;5.454;2023-05-19T12:43:24;23.10;45.70
78733;DHT22;68056;52.530;5.454;2023-05-19T12:45:49;23.20;45.70
78733;DHT22;68056;52.530;5.454;2023-05-19T12:48:15;23.20;45.80
78733;DHT22;68056;52.530;5.454;2023-05-19T12:50:42;23.10;45.90
78733;DHT22;68056;52.530;5.454;2023-05-19T12:53:13;23.00;46.20
78733;DHT22;68056;52.530;5.454;2023-05-19T12:55:39;23.00;46.20
78733;DHT22;68056;52.530;5.454;2023-05-19T12:58:08;23.00;46.40
78733;DHT22;68056;52.530;5.454;2023-05-19T13:00:43;23.10;46.40
78733;DHT22;68056;52.530;5.454;2023-05-19T13:03:17;23.20;46.30
78733;DHT22;68056;52.530;5.454;2023-05-19T13:05:47;23.10;46.20
78733;DHT22;68056;52.530;5.454;2023-05-19T13:08:15;23.00;46.60
78733;DHT22;68056;52.530;5.454;2023-05-19T13:10:42;23.00;46.60
78733;DHT22;68056;52.530;5.454;2023-05-19T13:13:08;22.90;46.60
78733;DHT22;68056;52.530;5.454;2023-05-19T13:15:36;22.90;46.50
78733;DHT22;68056;52.530;5.454;2023-05-19T13:18:04;22.90;46.50
78733;DHT22;68056;52.530;5.454;2023-05-19T13:20:30;22.80;46.40
78733;DHT22;68056;52.530;5.454;2023-05-19T13:22:57;22.70;46.50
78733;DHT22;68056;52.530;5.454;2023-05-19T13:25:23;22.70;46.60
78733;DHT22;68056;52.530;5.454;2023-05-19T13:27:48;22.60;46.70
78733;DHT22;68056;52.530;5.454;2023-05-19T13:30:14;22.50;46.80
78733;DHT22;68056;52.530;5.454;2023-05-19T13:32:44;22.60;46.70
78733;DHT22;68056;52.530;5.454;2023-05-19T13:35:09;22.70;46.70
78733;DHT22;68056;52.530;5.454;2023-05-19T13:37:36;22.80;46.90
78733;DHT22;68056;52.530;5.454;2023-05-19T13:40:01;23.10;46.60
78733;DHT22;68056;52.530;5.454;2023-05-19T13:42:27;23.10;46.30
78733;DHT22;68056;52.530;5.454;2023-05-19T13:44:54;23.30;46.20
78733;DHT22;68056;52.530;5.454;2023-05-19T13:47:23;23.40;46.00
78733;DHT22;68056;52.530;5.454;2023-05-19T13:49:49;23.50;45.80
78733;DHT22;68056;52.530;5.454;2023-05-19T13:52:14;23.50;45.90
78733;DHT22;68056;52.530;5.454;2023-05-19T13:54:40;23.60;45.90
78733;DHT22;68056;52.530;5.454;2023-05-19T13:57:06;23.60;45.90
78733;DHT22;68056;52.530;5.454;2023-05-19T13:59:32;23.60;45.90
78733;DHT22;68056;52.530;5.454;2023-05-19T14:01:59;23.80;45.90
78733;DHT22;68056;52.530;5.454;2023-05-19T14:04:25;24.10;45.70
78733;DHT22;68056;52.530;5.454;2023-05-19T14:06:50;24.30;45.50
78733;DHT22;68056;52.530;5.454;2023-05-19T14:09:16;24.50;44.70
78733;DHT22;68056;52.530;5.454;2023-05-19T14:11:42;24.50;44.20
78733;DHT22;68056;52.530;5.454;2023-05-19T14:14:13;24.60;44.60
78733;DHT22;68056;52.530;5.454;2023-05-19T14:16:39;24.70;44.50
78733;DHT22;68056;52.530;5.454;2023-05-19T14:19:07;24.70;44.50
78733;DHT22;68056;52.530;5.454;2023-05-19T14:21:32;24.80;44.60
78733;DHT22;68056;52.530;5.454;2023-05-19T14:23:58;24.70;44.40
78733;DHT22;68056;52.530;5.454;2023-05-19T14:26:24;24.60;44.30
78733;DHT22;68056;52.530;5.454;2023-05-19T14:28:50;24.50;44.50
78733;DHT22;68056;52.530;5.454;2023-05-19T14:31:16;24.50;44.40
78733;DHT22;68056;52.530;5.454;2023-05-19T14:33:42;24.50;44.30
78733;DHT22;68056;52.530;5.454;2023-05-19T14:36:08;24.50;44.30
78733;DHT22;68056;52.530;5.454;2023-05-19T14:38:33;24.60;44.50
78733;DHT22;68056;52.530;5.454;2023-05-19T14:40:59;24.80;44.60
78733;DHT22;68056;52.530;5.454;2023-05-19T14:43:25;24.90;44.50
78733;DHT22;68056;52.530;5.454;2023-05-19T14:45:51;24.90;44.60
78733;DHT22;68056;52.530;5.454;2023-05-19T14:48:17;24.90;44.40
78733;DHT22;68056;52.530;5.454;2023-05-19T14:50:42;24.70;44.40
78733;DHT22;68056;52.530;5.454;2023-05-19T14:53:08;24.50;44.50
78733;DHT22;68056;52.530;5.454;2023-05-19T14:55:34;24.40;44.40
78733;DHT22;68056;52.530;5.454;2023-05-19T14:58:00;24.40;44.40
78733;DHT22;68056;52.530;5.454;2023-05-19T15:00:26;24.40;44.60
78733;DHT22;68056;52.530;5.454;2023-05-19T15:02:52;24.40;44.50
78733;DHT22;68056;52.530;5.454;2023-05-19T15:05:18;24.50;44.30
78733;DHT22;68056;52.530;5.454;2023-05-19T15:07:43;24.40;43.60
78733;DHT22;68056;52.530;5.454;2023-05-19T15:10:09;24.20;43.90
78733;DHT22;68056;52.530;5.454;2023-05-19T15:12:35;24.20;44.10
78733;DHT22;68056;52.530;5.454;2023-05-19T15:15:00;24.20;43.50
78733;DHT22;68056;52.530;5.454;2023-05-19T15:17:27;24.00;43.40
78733;DHT22;68056;52.530;5.454;2023-05-19T15:19:52;24.00;43.40
78733;DHT22;68056;52.530;5.454;2023-05-19T15:22:18;23.90;43.20
78733;DHT22;68056;52.530;5.454;2023-05-19T15:24:44;23.70;43.30
78733;DHT22;68056;52.530;5.454;2023-05-19T15:27:09;23.60;43.50
78733;DHT22;68056;52.530;5.454;2023-05-19T15:29:35;23.60;43.50
78733;DHT22;68056;52.530;5.454;2023-05-19T15:32:01;23.70;43.30
78733;DHT22;68056;52.530;5.454;2023-05-19T15:34:28;23.60;43.20
78733;DHT22;68056;52.530;5.454;2023-05-19T15:36:54;23.40;43.10
78733;DHT22;68056;52.530;5.454;2023-05-19T15:39:19;23.30;43.40
78733;DHT22;68056;52.530;5.454;2023-05-19T15:41:45;23.40;43.50
78733;DHT22;68056;52.530;5.454;2023-05-19T15:44:11;23.50;43.70
78733;DHT22;68056;52.530;5.454;2023-05-19T15:46:36;23.40;44.10
78733;DHT22;68056;52.530;5.454;2023-05-19T15:49:02;23.30;44.40
78733;DHT22;68056;52.530;5.454;2023-05-19T15:51:28;23.20;44.40
78733;DHT22;68056;52.530;5.454;2023-05-19T15:53:54;23.10;43.90
78733;DHT22;68056;52.530;5.454;2023-05-19T15:56:19;22.80;43.70
78733;DHT22;68056;52.530;5.454;2023-05-19T15:58:46;22.70;43.70
78733;DHT22;68056;52.530;5.454;2023-05-19T16:01:12;22.70;44.00